Latest Weather Observations for Yamba

IDN60801

Issued at 10:02 pm EDT Wednesday 10 February 2016 (issued every 30 minutes, with the page automatically refreshed every 10 minutes)

About weather observations | Map of weather stations | Latest weather observations for NSW | Other Formats
Station Details ID: 058012 Name: YAMBA PILOT STATION Lat: -29.43 Lon: 153.36 Height: 27.4 m
Data from the previous 72 hours. | See also: Recent months at Yamba
Date/Time
EDT
Temp
°C
App
Temp
°C
Dew
Point
Rel
Hum
%
Delta-T
°C
Wind Press
QNH
hPa
Press
MSL
hPa
Rain
since 9 am
mm
Dir
 
Spd
km/h
Gust
km/h
Spd
kts
Gust
kts
10/10:00pm 23.9 24.4 20.0 79 2.5 ESE 17 22 9 12 1014.8 1014.6 0.0
10/09:30pm 23.5 24.5 20.2 82 2.1 ESE 15 20 8 11 1014.7 1014.5 0.0
10/09:00pm 23.9 25.1 20.6 82 2.2 ESE 15 24 8 13 1014.6 1014.4 0.0
10/08:30pm 23.9 24.3 19.8 78 2.6 ESE 17 28 9 15 1014.4 1014.2 0.0
10/08:00pm 23.8 24.2 19.9 79 2.5 ESE 17 28 9 15 1014.4 1014.2 0.0
10/07:30pm 24.0 22.7 19.1 74 3.1 SE 24 32 13 17 1014.0 1013.8 0.0
10/07:00pm 23.7 23.2 19.0 75 3.0 ESE 20 32 11 17 1013.6 1013.4 0.0
10/06:30pm 23.6 23.1 19.9 80 2.4 ESE 22 33 12 18 1013.5 1013.3 0.0
10/06:00pm 23.8 23.0 20.1 80 2.4 ESE 24 39 13 21 1013.5 1013.3 0.0
10/05:30pm 24.4 24.0 20.1 77 2.8 ESE 22 33 12 18 1013.5 1013.3 0.0
10/05:00pm 25.4 24.8 20.6 75 3.1 ESE 24 35 13 19 1013.3 1013.1 0.0
10/04:30pm 25.2 24.3 20.7 76 3.0 ESE 26 37 14 20 1013.2 1013.0 0.0
10/04:00pm 26.1 23.5 17.7 60 5.3 SE 28 35 15 19 1013.4 1013.2 0.0
10/03:30pm 25.9 23.7 17.8 61 5.1 SE 26 32 14 17 1013.5 1013.3 0.0
10/03:00pm 26.4 25.0 18.8 63 4.9 SE 24 32 13 17 1013.7 1013.5 0.0
10/02:30pm 25.9 23.5 18.3 63 4.8 SE 28 33 15 18 1014.0 1013.8 0.0
10/02:00pm 25.5 23.3 17.9 63 4.8 SE 26 33 14 18 1014.2 1014.0 0.0
10/01:30pm 26.1 25.1 19.7 68 4.1 SSE 24 39 13 21 1014.3 1014.1 0.0
10/01:00pm 26.1 24.9 19.2 65 4.4 SSE 24 33 13 18 1014.4 1014.2 0.0
10/12:30pm 26.3 24.8 17.6 58 5.5 SSE 22 33 12 18 1014.7 1014.5 0.0
10/12:00pm 25.9 25.5 19.3 67 4.2 SSE 20 32 11 17 1014.9 1014.7 0.0
10/11:30am 25.8 24.9 17.7 61 5.1 SSE 19 26 10 14 1015.1 1014.9 0.0
10/11:00am 25.9 25.8 19.5 68 4.1 SSE 19 28 10 15 1015.3 1015.1 0.0
10/10:30am 25.5 24.4 17.7 62 4.9 SSE 20 28 11 15 1015.3 1015.1 0.0
10/10:00am 26.3 24.3 16.5 54 6.1 SE 22 30 12 16 1015.2 1015.0 0.0
10/09:30am 25.6 22.9 16.5 57 5.6 SE 26 33 14 18 1015.2 1015.0 0.0
10/09:00am 24.3 21.8 17.1 64 4.5 SE 26 33 14 18 1015.1 1014.9 0.0
10/08:30am 24.0 23.4 18.4 71 3.5 SSE 19 28 10 15 1014.9 1014.7 0.0
10/08:00am 21.6 22.7 18.8 84 1.8 S 11 20 6 11 1014.8 1014.6 0.0
10/07:30am 20.5 21.8 18.4 88 1.3 SW 9 15 5 8 1014.6 1014.4 0.0
10/07:00am 20.7 21.8 18.1 85 1.6 SSW 9 15 5 8 1014.5 1014.3 0.0
10/06:30am 21.3 22.7 17.7 80 2.2 SW 7 15 4 8 1014.4 1014.2 0.0
10/06:00am 22.6 23.2 18.6 78 2.5 SSE 13 22 7 12 1014.2 1014.0 0.0
10/05:30am 22.1 22.3 18.5 80 2.3 SSE 15 22 8 12 1014.1 1013.9 0.0
10/05:17am 22.3 20.3 19.1 82 2.0 SE 28 46 15 25 1014.2 1014.0 0.0
10/05:09am 23.1 21.1 19.1 78 2.5 SE 28 44 15 24 1014.1 1013.9 0.0
10/05:00am 23.3 21.9 17.1 68 3.8 SSE 20 26 11 14 1014.0 1013.8 0.0
10/04:30am 22.9 21.3 16.4 67 4.0 SSE 20 30 11 16 1013.8 1013.6 0.0
10/04:00am 23.0 20.5 16.1 65 4.2 SSE 24 33 13 18 1013.8 1013.6 0.0
10/03:30am 23.2 20.5 15.5 62 4.6 SE 24 33 13 18 1013.9 1013.7 0.0
10/03:00am 23.2 20.0 16.3 65 4.2 SE 28 37 15 20 1014.2 1014.0 0.0
10/02:30am 23.2 20.1 17.4 70 3.6 SE 30 39 16 21 1014.5 1014.3 0.0
10/02:00am 23.4 21.0 18.3 73 3.2 SE 28 33 15 18 1014.9 1014.7 0.0
10/01:30am 23.4 21.0 18.3 73 3.2 SE 28 37 15 20 1015.2 1015.0 0.0
10/01:00am 23.5 21.1 18.2 72 3.3 SE 28 35 15 19 1015.5 1015.3 0.0
10/12:30am 23.3 19.9 17.7 71 3.5 SE 32 43 17 23 1016.0 1015.8 0.0
10/12:00am 23.5 20.6 17.9 71 3.5 SE 30 43 16 23 1016.4 1016.2 0.0
 
Date/Time
EDT
Temp
°C
App
Temp
°C
Dew
Point
Rel
Hum
%
Delta-T
°C
Wind Press
QNH
hPa
Press
MSL
hPa
Rain
since 9 am
mm
Dir
 
Spd
km/h
Gust
km/h
Spd
kts
Gust
kts
09/11:30pm 23.6 20.6 17.8 70 3.6 SE 30 41 16 22 1016.8 1016.6 0.0
09/11:00pm 23.7 20.5 18.1 71 3.5 SE 32 41 17 22 1017.0 1016.8 0.0
09/10:30pm 23.8 20.0 18.2 71 3.5 SE 35 44 19 24 1017.1 1016.9 0.0
09/10:00pm 23.6 20.1 17.8 70 3.6 SE 33 43 18 23 1017.3 1017.1 0.0
09/09:30pm 23.9 21.1 19.0 74 3.1 SE 32 43 17 23 1017.2 1017.0 0.0
09/09:00pm 23.7 20.6 18.8 74 3.1 SE 33 44 18 24 1017.0 1016.8 0.0
09/08:30pm 24.0 20.7 19.3 75 3.0 SE 35 44 19 24 1016.7 1016.5 0.0
09/08:00pm 24.0 20.8 18.6 72 3.4 SE 33 46 18 25 1016.6 1016.4 0.0
09/07:30pm 24.2 21.4 19.1 73 3.3 SE 32 41 17 22 1016.6 1016.4 0.0
09/07:00pm 24.3 21.2 18.9 72 3.4 SE 33 43 18 23 1016.4 1016.2 0.0
09/06:30pm 24.5 21.2 18.4 69 3.9 SE 33 43 18 23 1016.2 1016.0 0.0
09/06:00pm 24.5 21.3 18.2 68 4.0 SE 32 43 17 23 1016.3 1016.1 0.0
09/05:30pm 24.9 21.9 18.6 68 4.0 SE 32 41 17 22 1016.1 1015.9 0.0
09/05:00pm 25.5 22.0 18.7 66 4.3 SE 35 46 19 25 1016.1 1015.9 0.0
09/04:30pm 25.3 21.7 17.7 62 4.8 SE 33 46 18 25 1016.1 1015.9 0.0
09/04:00pm 26.2 23.2 18.6 63 4.8 SE 32 43 17 23 1016.2 1016.0 0.0
09/03:30pm 26.0 22.8 18.2 62 4.9 SE 32 41 17 22 1016.3 1016.1 0.0
09/03:00pm 26.2 22.9 18.3 61 5.0 SE 33 43 18 23 1016.4 1016.2 0.0
09/02:30pm 26.3 23.1 18.7 63 4.9 SE 33 46 18 25 1016.5 1016.3 0.0
09/02:00pm 26.8 23.6 18.6 60 5.2 SE 33 43 18 23 1016.6 1016.4 0.0
09/01:30pm 26.6 23.9 18.5 61 5.2 SSE 30 43 16 23 1017.0 1016.8 0.0
09/01:00pm 26.5 23.1 17.8 58 5.5 SE 32 50 17 27 1017.0 1016.8 0.0
09/12:59pm 26.7 23.6 18.3 60 5.3 SE 32 50 17 27 1017.0 1016.8 0.0
09/12:30pm 26.5 22.8 18.4 61 5.2 SE 35 44 19 24 1017.2 1017.0 0.0
09/12:00pm 25.5 22.3 18.2 64 4.6 SE 32 46 17 25 1017.3 1017.1 0.0
09/11:30am 25.3 23.1 18.7 67 4.2 SSE 28 39 15 21 1017.5 1017.3 0.0
09/11:00am 26.4 23.7 18.5 62 5.0 SE 30 39 16 21 1017.5 1017.3 0.0
09/10:30am 26.1 23.0 18.8 64 4.7 SE 33 43 18 23 1017.6 1017.4 0.0
09/10:00am 25.1 22.0 18.3 66 4.3 SE 32 43 17 23 1017.4 1017.2 0.0
09/09:30am 25.7 22.6 18.4 64 4.6 SSE 32 44 17 24 1017.2 1017.0 0.0
09/09:00am 24.3 22.3 19.1 73 3.3 SSE 28 41 15 22 1017.0 1016.8 0.0
09/08:57am 24.1 22.0 19.0 73 3.2 SSE 28 46 15 25 1017.0 1016.8 0.0
09/08:30am 24.7 22.1 18.6 69 3.9 SSE 30 43 16 23 1016.7 1016.5 0.0
09/08:29am 24.4 21.6 18.1 68 4.0 SSE 30 43 16 23 1016.7 1016.5 0.0
09/08:00am 23.9 24.7 19.8 78 2.6 S 15 22 8 12 1016.5 1016.3 0.0
09/07:30am 23.0 23.8 19.0 78 2.5 S 13 20 7 11 1016.2 1016.0 0.0
09/07:00am 22.0 23.0 19.5 86 1.6 S 13 22 7 12 1015.9 1015.7 0.0
09/06:30am 21.6 22.7 19.7 89 1.2 S 13 17 7 9 1015.6 1015.4 0.0
09/06:00am 22.4 23.4 19.4 83 1.9 SSE 13 19 7 10 1015.4 1015.2 0.0
09/05:30am 22.7 22.2 18.7 78 2.5 S 19 28 10 15 1015.2 1015.0 0.0
09/05:00am 23.0 22.9 18.7 77 2.7 SSE 17 30 9 16 1015.0 1014.8 0.0
09/04:30am 23.7 21.7 18.4 72 3.3 SSE 26 39 14 21 1014.7 1014.5 0.0
09/04:00am 23.7 21.4 18.4 72 3.3 SSE 28 43 15 23 1014.6 1014.4 0.0
09/03:30am 24.2 23.0 19.3 74 3.1 SSE 24 39 13 21 1014.7 1014.5 0.0
09/03:00am 23.8 21.1 17.5 68 3.9 SSE 28 37 15 20 1014.8 1014.6 0.0
09/02:30am 23.8 22.1 18.2 71 3.5 SSE 24 39 13 21 1015.0 1014.8 0.0
09/02:00am 23.9 21.3 17.9 69 3.8 SSE 28 39 15 21 1015.2 1015.0 0.0
09/01:30am 24.0 21.3 18.4 71 3.5 SE 30 41 16 22 1015.7 1015.5 0.0
09/01:00am 23.9 21.0 18.8 73 3.2 SE 32 41 17 22 1015.8 1015.6 0.0
09/12:30am 23.9 20.4 17.9 69 3.8 SE 33 43 18 23 1016.2 1016.0 0.0
09/12:00am 23.9 20.1 17.2 66 4.1 SE 33 44 18 24 1016.5 1016.3 0.0
 
Date/Time
EDT
Temp
°C
App
Temp
°C
Dew
Point
Rel
Hum
%
Delta-T
°C
Wind Press
QNH
hPa
Press
MSL
hPa
Rain
since 9 am
mm
Dir
 
Spd
km/h
Gust
km/h
Spd
kts
Gust
kts
08/11:30pm 24.1 20.6 17.8 68 3.9 SE 33 48 18 26 1016.9 1016.7 0.0
08/11:00pm 24.3 21.3 18.7 71 3.5 SSE 32 44 17 24 1016.9 1016.7 0.0
08/10:30pm 24.4 21.6 18.3 69 3.8 SSE 30 43 16 23 1016.8 1016.6 0.0
08/10:00pm 24.2 21.4 18.2 69 3.8 SSE 30 41 16 22 1016.7 1016.5 0.0
08/09:55pm 24.4 21.5 18.8 71 3.6 SSE 32 50 17 27 1016.7 1016.5 0.0
08/09:30pm 24.2 21.4 18.2 69 3.8 SSE 30 43 16 23 1016.5 1016.3 0.0
08/09:00pm 24.2 21.1 18.4 70 3.7 SSE 32 44 17 24 1016.2 1016.0 0.0
08/08:30pm 24.2 21.2 18.6 71 3.5 SSE 32 48 17 26 1015.9 1015.7 0.0
08/08:11pm 24.2 22.0 18.8 72 3.4 SSE 28 50 15 27 1015.7 1015.5 0.0
08/08:00pm 24.2 22.4 18.8 72 3.4 SSE 26 35 14 19 1015.6 1015.4 0.0
08/07:30pm 24.3 22.5 18.7 71 3.6 SSE 26 39 14 21 1015.3 1015.1 0.0
08/07:00pm 24.6 23.0 19.2 72 3.5 SSE 26 39 14 21 1015.0 1014.8 0.0
08/06:30pm 24.9 23.3 19.1 70 3.7 SE 26 37 14 20 1014.7 1014.5 0.0
08/06:00pm 25.4 23.9 19.5 70 3.8 SSE 26 35 14 19 1014.5 1014.3 0.0
08/05:30pm 25.3 22.7 18.7 67 4.2 SSE 30 39 16 21 1014.6 1014.4 0.0
08/05:00pm 25.8 23.2 18.7 65 4.5 SSE 30 41 16 22 1014.7 1014.5 0.0
08/04:30pm 25.6 23.6 18.3 64 4.6 SSE 26 41 14 22 1014.8 1014.6 0.0
08/04:00pm 25.8 25.0 20.1 71 3.7 SSE 24 35 13 19 1014.7 1014.5 0.0
08/03:30pm 25.4 23.7 19.8 71 3.6 SSE 28 44 15 24 1014.9 1014.7 0.0
08/03:00pm 26.2 25.5 20.3 70 3.9 SSE 24 33 13 18 1015.1 1014.9 0.0
08/02:30pm 26.3 25.1 20.8 71 3.6 SSE 28 41 15 22 1015.4 1015.2 0.0
08/02:00pm 26.4 25.2 20.0 68 4.2 SSE 26 39 14 21 1015.5 1015.3 0.0
08/01:30pm 26.8 25.9 20.6 69 4.1 SSE 26 35 14 19 1015.8 1015.6 0.0
08/01:00pm 26.3 25.6 20.2 69 4.0 SSE 24 39 13 21 1016.0 1015.8 0.0
08/12:30pm 26.5 25.7 20.1 68 4.2 SSE 24 37 13 20 1016.3 1016.1 0.0
08/12:00pm 26.3 25.3 19.7 67 4.3 SSE 24 41 13 22 1016.5 1016.3 0.0
08/11:30am 25.8 24.9 19.0 66 4.4 SSE 22 35 12 19 1016.7 1016.5 0.0
08/11:00am 25.8 24.6 19.2 67 4.2 SSE 24 39 13 21 1016.7 1016.5 0.0
08/10:30am 25.8 25.0 19.2 67 4.2 SSE 22 33 12 18 1016.7 1016.5 0.0
08/10:00am 25.0 23.9 17.7 64 4.6 S 20 32 11 17 1016.5 1016.3 0.0
08/09:30am 25.1 24.8 18.3 66 4.3 SSE 17 24 9 13 1016.3 1016.1 0.0
08/09:00am 23.0 22.8 17.5 71 3.4 SSW 15 20 8 11 1016.2 1016.0 0.2
08/08:30am 21.8 21.9 16.5 72 3.2 SW 11 17 6 9 1016.2 1016.0 0.2
08/08:00am 20.9 21.0 16.5 76 2.7 SW 11 19 6 10 1016.0 1015.8 0.2
08/07:30am 19.7 20.1 16.3 81 2.0 SW 9 15 5 8 1015.8 1015.6 0.2
08/07:00am 18.8 19.1 16.0 84 1.7 SW 9 15 5 8 1015.7 1015.5 0.2
08/06:30am 18.5 19.1 16.7 89 1.1 SW 9 13 5 7 1015.4 1015.2 0.2
08/06:00am 18.4 19.3 16.6 89 1.1 SW 7 13 4 7 1015.1 1014.9 0.2
08/05:30am 18.4 19.2 16.4 88 1.2 SW 7 13 4 7 1015.0 1014.8 0.2
08/05:00am 18.6 19.5 16.6 88 1.2 SW 7 13 4 7 1015.0 1014.8 0.2
08/04:30am 18.7 19.6 16.7 88 1.2 WSW 7 13 4 7 1015.0 1014.8 0.2
08/04:00am 19.0 19.7 17.1 89 1.2 WSW 9 13 5 7 1015.1 1014.9 0.2
08/03:30am 19.5 20.7 17.3 87 1.3 W 7 11 4 6 1015.2 1015.0 0.2
08/03:00am 19.9 21.0 17.1 84 1.7 SW 7 15 4 8 1015.3 1015.1 0.2
08/02:30am 20.2 21.4 17.4 84 1.7 WSW 7 13 4 7 1015.6 1015.4 0.2
08/02:00am 20.7 21.9 17.3 81 2.1 WSW 7 13 4 7 1015.8 1015.6 0.2
08/01:30am 21.3 21.9 16.9 76 2.7 SW 9 15 5 8 1016.1 1015.9 0.2
08/01:00am 22.3 23.4 17.2 73 3.1 WSW 7 11 4 6 1016.2 1016.0 0.2
08/12:30am 23.6 22.3 16.9 66 4.1 SSE 19 30 10 16 1016.4 1016.2 0.2
08/12:00am 23.5 21.3 17.0 67 4.0 SSE 24 33 13 18 1016.3 1016.1 0.2
 
Date/Time
EDT
Temp
°C
App
Temp
°C
Dew
Point
Rel
Hum
%
Delta-T
°C
Wind Press
QNH
hPa
Press
MSL
hPa
Rain
since 9 am
mm
Dir
 
Spd
km/h
Gust
km/h
Spd
kts
Gust
kts
07/11:30pm 23.5 21.6 16.8 66 4.1 SSE 22 30 12 16 1016.3 1016.1 0.2
07/11:00pm 23.7 21.9 17.0 66 4.1 SSE 22 30 12 16 1016.4 1016.2 0.2
07/10:30pm 23.7 21.7 17.4 68 3.9 SE 24 32 13 17 1016.5 1016.3 0.2

Other Formats:

Comma delimited format used in spreadsheet applications
http://www.bom.gov.au/fwo/IDN60801/IDN60801.94589.axf

JavaScript Object Notation format (JSON) in row-major order
http://www.bom.gov.au/fwo/IDN60801/IDN60801.94589.json